createdAt,value
2017-12-16T00:00:12.500Z,99326.28
2017-12-16T00:01:14.957Z,99334.16
2017-12-16T00:02:17.432Z,99337.39
2017-12-16T00:03:19.905Z,99337.33
2017-12-16T00:04:22.363Z,99337.67
2017-12-16T00:05:24.833Z,99341.53
2017-12-16T00:06:27.289Z,99339.42
2017-12-16T00:07:29.771Z,99344.43
2017-12-16T00:08:32.249Z,99347.70
2017-12-16T00:09:34.715Z,99349.39
2017-12-16T00:10:37.195Z,99347.03
2017-12-16T00:11:39.655Z,99350.11
2017-12-16T00:12:42.152Z,99346.80
2017-12-16T00:13:45.550Z,99352.56
2017-12-16T00:14:48.026Z,99355.70
2017-12-16T00:15:50.490Z,99354.52
2017-12-16T00:16:52.957Z,99356.08
2017-12-16T00:17:55.464Z,99351.91
2017-12-16T00:18:57.932Z,99354.06
2017-12-16T00:20:00.390Z,99357.69
2017-12-16T00:21:02.861Z,99354.31
2017-12-16T00:22:05.336Z,99353.53
2017-12-16T00:23:07.828Z,99364.70
2017-12-16T00:24:10.291Z,99365.98
2017-12-16T00:25:12.746Z,99363.80
2017-12-16T00:26:15.200Z,99367.16
2017-12-16T00:27:17.669Z,99374.31
2017-12-16T00:28:20.150Z,99369.79
2017-12-16T00:29:22.621Z,99375.52
2017-12-16T00:30:25.085Z,99371.30
2017-12-16T00:31:27.543Z,99377.81
2017-12-16T00:32:30.021Z,99375.52
2017-12-16T00:33:32.532Z,99372.73
2017-12-16T00:34:34.990Z,99374.67
2017-12-16T00:35:37.461Z,99378.72
2017-12-16T00:36:39.942Z,99380.47
2017-12-16T00:37:42.398Z,99381.23
2017-12-16T00:38:44.880Z,99381.91
2017-12-16T00:39:47.334Z,99380.12
2017-12-16T00:40:49.808Z,99382.34
2017-12-16T00:41:52.273Z,99380.86
2017-12-16T00:42:54.749Z,99382.73
2017-12-16T00:43:57.236Z,99383.23
2017-12-16T00:44:59.690Z,99382.34
2017-12-16T00:46:02.141Z,99388.61
2017-12-16T00:47:04.622Z,99387.45
2017-12-16T00:48:07.088Z,99389.11
2017-12-16T00:49:09.576Z,99388.77
2017-12-16T00:50:12.036Z,99389.20
2017-12-16T00:51:14.494Z,99389.44
2017-12-16T00:52:16.968Z,99391.94
2017-12-16T00:53:19.457Z,99390.16
2017-12-16T00:54:21.949Z,99397.23
2017-12-16T00:55:24.421Z,99393.11
2017-12-16T00:56:26.884Z,99398.08
2017-12-16T00:57:29.345Z,99402.20
2017-12-16T00:58:31.808Z,99399.78
2017-12-16T00:59:34.305Z,99400.89
2017-12-16T01:00:36.762Z,99397.77
2017-12-16T01:01:39.233Z,99405.06
2017-12-16T01:02:41.705Z,99401.19
2017-12-16T01:03:44.181Z,99403.62
2017-12-16T01:04:46.659Z,99402.80
2017-12-16T01:05:49.128Z,99407.39
2017-12-16T01:06:51.609Z,99408.88
2017-12-16T01:07:54.077Z,99406.47
2017-12-16T01:08:56.534Z,99398.27
2017-12-16T01:09:59.028Z,99407.11
2017-12-16T01:11:01.477Z,99407.42
2017-12-16T01:12:03.935Z,99409.00
2017-12-16T01:13:06.408Z,99412.08
2017-12-16T01:14:08.863Z,99411.48
2017-12-16T01:15:11.357Z,99416.36
2017-12-16T01:16:13.815Z,99416.64
2017-12-16T01:17:16.285Z,99421.71
2017-12-16T01:18:18.760Z,99415.58
2017-12-16T01:19:21.237Z,99423.05
2017-12-16T01:20:23.710Z,99427.88
2017-12-16T01:21:26.180Z,99424.83
2017-12-16T01:22:28.653Z,99424.73
2017-12-16T01:23:31.173Z,99428.03
2017-12-16T01:24:33.631Z,99433.38
2017-12-16T01:25:36.134Z,99429.67
2017-12-16T01:26:38.604Z,99431.06
2017-12-16T01:27:41.084Z,99432.33
2017-12-16T01:28:43.546Z,99435.37
2017-12-16T01:29:46.024Z,99436.77
2017-12-16T01:30:48.512Z,99437.98
2017-12-16T01:31:50.970Z,99437.81
2017-12-16T01:32:53.470Z,99435.72
2017-12-16T01:34:07.924Z,99439.31
2017-12-16T01:35:22.084Z,99444.34
2017-12-16T01:36:36.361Z,99443.96
2017-12-16T01:37:50.917Z,99446.58
2017-12-16T01:38:53.389Z,99443.61
2017-12-16T01:39:55.861Z,99447.58
2017-12-16T01:40:58.389Z,99448.50
2017-12-16T01:42:00.904Z,99450.52
2017-12-16T01:43:03.384Z,99448.44
2017-12-16T01:44:05.843Z,99454.25
2017-12-16T01:45:08.318Z,99451.55
2017-12-16T01:46:10.770Z,99454.09
2017-12-16T01:47:13.287Z,99456.23
2017-12-16T01:48:15.776Z,99457.95
2017-12-16T01:49:18.238Z,99457.09
2017-12-16T01:50:20.699Z,99457.19
2017-12-16T01:51:23.188Z,99460.96
2017-12-16T01:52:25.665Z,99462.64
2017-12-16T01:53:28.123Z,99466.84
2017-12-16T01:54:30.599Z,99466.11
2017-12-16T01:55:33.056Z,99463.17
2017-12-16T01:56:35.510Z,99469.12
2017-12-16T01:57:37.986Z,99471.93
2017-12-16T01:58:40.446Z,99472.75
2017-12-16T01:59:42.910Z,99475.17
2017-12-16T02:00:45.366Z,99475.09
2017-12-16T02:01:47.841Z,99479.09
2017-12-16T02:02:50.324Z,99481.36
2017-12-16T02:03:52.781Z,99480.64
2017-12-16T02:04:55.243Z,99483.75
2017-12-16T02:05:57.698Z,99486.75
2017-12-16T02:07:00.158Z,99487.92
2017-12-16T02:08:02.626Z,99487.66
2017-12-16T02:09:05.109Z,99483.47
2017-12-16T02:10:07.566Z,99486.33
2017-12-16T02:11:10.033Z,99487.87
2017-12-16T02:12:12.496Z,99492.33
2017-12-16T02:13:14.985Z,99486.05
2017-12-16T02:14:17.488Z,99487.40
2017-12-16T02:15:19.946Z,99488.02
2017-12-16T02:16:22.432Z,99488.94
2017-12-16T02:17:24.901Z,99488.78
2017-12-16T02:18:27.394Z,99490.58
2017-12-16T02:19:29.868Z,99489.51
2017-12-16T02:20:32.341Z,99494.01
2017-12-16T02:21:34.809Z,99488.39
2017-12-16T02:22:37.285Z,99495.44
2017-12-16T02:23:39.758Z,99495.84
2017-12-16T02:24:42.232Z,99496.30
2017-12-16T02:25:44.713Z,99501.78
2017-12-16T02:26:47.188Z,99500.77
2017-12-16T02:27:49.656Z,99502.58
2017-12-16T02:28:52.146Z,99500.01
2017-12-16T02:29:54.618Z,99505.21
2017-12-16T02:30:57.094Z,99501.66
2017-12-16T02:31:59.568Z,99499.84
2017-12-16T02:33:02.032Z,99503.84
2017-12-16T02:34:04.531Z,99509.25
2017-12-16T02:35:06.986Z,99501.72
2017-12-16T02:36:09.459Z,99507.17
2017-12-16T02:37:11.942Z,99505.92
2017-12-16T02:38:14.397Z,99508.99
2017-12-16T02:39:16.892Z,99510.25
2017-12-16T02:40:19.347Z,99505.06
2017-12-16T02:41:21.816Z,99509.80
2017-12-16T02:42:24.270Z,99503.37
2017-12-16T02:43:26.744Z,99505.42
2017-12-16T02:44:29.227Z,99504.67
2017-12-16T02:45:31.708Z,99512.25
2017-12-16T02:46:34.166Z,99513.12
2017-12-16T02:47:36.622Z,99507.41
2017-12-16T02:48:39.074Z,99508.99
2017-12-16T02:49:41.554Z,99514.48
2017-12-16T02:50:44.053Z,99515.59
2017-12-16T02:51:46.535Z,99517.33
2017-12-16T02:52:49.096Z,99516.19
2017-12-16T02:53:51.568Z,99516.56
2017-12-16T02:54:54.047Z,99516.00
2017-12-16T02:55:56.547Z,99518.60
2017-12-16T02:56:59.078Z,99516.86
2017-12-16T02:58:01.549Z,99521.20
2017-12-16T02:59:04.007Z,99525.05
2017-12-16T03:00:06.492Z,99526.58
2017-12-16T03:01:08.967Z,99525.95
2017-12-16T03:02:11.432Z,99521.79
2017-12-16T03:03:13.905Z,99529.03
2017-12-16T03:04:16.366Z,99528.31
2017-12-16T03:05:18.848Z,99529.36
2017-12-16T03:06:21.314Z,99527.95
2017-12-16T03:07:23.770Z,99531.62
2017-12-16T03:08:26.226Z,99533.27
2017-12-16T03:09:28.707Z,99532.12
2017-12-16T03:10:31.189Z,99540.08
2017-12-16T03:11:33.654Z,99538.28
2017-12-16T03:12:36.146Z,99541.72
2017-12-16T03:13:38.607Z,99533.15
2017-12-16T03:14:41.085Z,99544.14
2017-12-16T03:15:43.581Z,99540.28
2017-12-16T03:16:46.046Z,99542.38
2017-12-16T03:17:48.516Z,99546.23
2017-12-16T03:18:50.989Z,99546.77
2017-12-16T03:19:53.459Z,99547.58
2017-12-16T03:20:55.942Z,99551.16
2017-12-16T03:21:58.527Z,99543.89
2017-12-16T03:23:00.996Z,99551.83
2017-12-16T03:24:03.450Z,99549.94
2017-12-16T03:25:05.922Z,99556.28
2017-12-16T03:26:08.404Z,99553.00
2017-12-16T03:27:10.885Z,99553.61
2017-12-16T03:28:13.343Z,99559.50
2017-12-16T03:29:15.798Z,99560.23
2017-12-16T03:30:18.260Z,99562.98
2017-12-16T03:31:20.845Z,99566.87
2017-12-16T03:32:23.326Z,99566.23
2017-12-16T03:33:25.797Z,99569.83
2017-12-16T03:34:28.274Z,99569.31
2017-12-16T03:35:30.740Z,99572.30
2017-12-16T03:36:33.232Z,99576.23
2017-12-16T03:37:35.711Z,99575.88
2017-12-16T03:38:38.184Z,99573.45
2017-12-16T03:39:40.642Z,99571.68
2017-12-16T03:40:43.094Z,99578.45
2017-12-16T03:41:45.606Z,99578.86
2017-12-16T03:42:48.072Z,99581.97
2017-12-16T03:43:50.546Z,99583.89
2017-12-16T03:44:53.002Z,99578.94
2017-12-16T03:45:55.469Z,99574.75
2017-12-16T03:46:57.985Z,99580.52
2017-12-16T03:48:00.438Z,99577.19
2017-12-16T03:49:02.917Z,99586.70
2017-12-16T03:50:05.375Z,99587.17
2017-12-16T03:51:07.851Z,99592.30
2017-12-16T03:52:10.326Z,99590.55
2017-12-16T03:53:12.792Z,99597.14
2017-12-16T03:54:15.269Z,99599.78
2017-12-16T03:55:17.731Z,99596.37
2017-12-16T03:56:20.183Z,99600.23
2017-12-16T03:57:22.676Z,99597.66
2017-12-16T03:58:25.167Z,99599.00
2017-12-16T03:59:27.627Z,99603.81
2017-12-16T04:00:30.097Z,99600.69
2017-12-16T04:01:32.568Z,99603.59
2017-12-16T04:02:35.043Z,99600.25
2017-12-16T04:03:37.498Z,99603.81
2017-12-16T04:04:39.968Z,99603.75
2017-12-16T04:05:42.441Z,99608.75
2017-12-16T04:06:44.905Z,99605.41
2017-12-16T04:07:47.412Z,99602.50
2017-12-16T04:08:49.881Z,99613.10
2017-12-16T04:09:52.359Z,99613.59
2017-12-16T04:10:54.828Z,99613.47
2017-12-16T04:11:57.288Z,99609.91
2017-12-16T04:12:59.798Z,99615.59
2017-12-16T04:14:02.277Z,99613.94
2017-12-16T04:15:04.790Z,99611.98
2017-12-16T04:16:07.250Z,99608.31
2017-12-16T04:17:09.727Z,99619.48
2017-12-16T04:18:12.222Z,99613.60
2017-12-16T04:19:14.684Z,99615.72
2017-12-16T04:20:17.139Z,99619.03
2017-12-16T04:21:19.604Z,99611.13
2017-12-16T04:22:22.077Z,99623.26
2017-12-16T04:23:24.554Z,99626.03
2017-12-16T04:24:27.035Z,99624.24
2017-12-16T04:25:29.490Z,99627.11
2017-12-16T04:26:31.951Z,99627.56
2017-12-16T04:27:34.406Z,99626.56
2017-12-16T04:28:36.901Z,99624.75
2017-12-16T04:29:39.368Z,99625.53
2017-12-16T04:30:41.842Z,99620.87
2017-12-16T04:31:44.317Z,99619.17
2017-12-16T04:32:46.813Z,99625.72
2017-12-16T04:33:49.286Z,99622.19
2017-12-16T04:34:51.736Z,99623.48
2017-12-16T04:35:54.190Z,99622.92
2017-12-16T04:36:56.673Z,99623.59
2017-12-16T04:37:59.131Z,99626.26
2017-12-16T04:39:01.624Z,99620.09
2017-12-16T04:40:04.097Z,99622.75
2017-12-16T04:41:06.570Z,99623.20
2017-12-16T04:42:09.026Z,99629.90
2017-12-16T04:43:11.492Z,99629.22
2017-12-16T04:44:13.967Z,99625.84
2017-12-16T04:45:16.472Z,99630.19
2017-12-16T04:46:18.940Z,99634.11
2017-12-16T04:47:21.412Z,99634.14
2017-12-16T04:48:23.885Z,99629.38
2017-12-16T04:49:26.359Z,99630.73
2017-12-16T04:50:28.863Z,99631.59
2017-12-16T04:51:31.337Z,99635.83
2017-12-16T04:52:33.793Z,99639.75
2017-12-16T04:53:36.261Z,99640.14
2017-12-16T04:54:38.734Z,99641.53
2017-12-16T04:55:41.209Z,99637.77
2017-12-16T04:56:43.682Z,99637.77
2017-12-16T04:57:46.156Z,99637.38
2017-12-16T04:58:48.620Z,99639.64
2017-12-16T04:59:51.101Z,99639.27
2017-12-16T05:00:53.559Z,99639.62
2017-12-16T05:01:56.021Z,99640.61
2017-12-16T05:02:58.478Z,99642.81
2017-12-16T05:04:00.942Z,99644.04
2017-12-16T05:05:03.415Z,99642.22
2017-12-16T05:06:05.932Z,99643.05
2017-12-16T05:07:08.409Z,99645.23
2017-12-16T05:08:10.862Z,99654.34
2017-12-16T05:09:13.319Z,99644.19
2017-12-16T05:10:15.804Z,99652.34
2017-12-16T05:11:18.263Z,99656.00
2017-12-16T05:12:20.738Z,99652.96
2017-12-16T05:13:23.239Z,99657.55
2017-12-16T05:14:25.695Z,99655.03
2017-12-16T05:15:28.187Z,99657.84
2017-12-16T05:16:30.665Z,99660.78
2017-12-16T05:17:33.139Z,99661.17
2017-12-16T05:18:35.602Z,99661.70
2017-12-16T05:19:38.056Z,99662.02
2017-12-16T05:20:40.546Z,99663.28
2017-12-16T05:21:43.027Z,99666.08
2017-12-16T05:22:45.503Z,99663.90
2017-12-16T05:23:48.024Z,99664.23
2017-12-16T05:24:50.479Z,99664.97
2017-12-16T05:25:52.996Z,99664.27
2017-12-16T05:26:55.473Z,99667.64
2017-12-16T05:27:57.949Z,99665.99
2017-12-16T05:29:00.416Z,99674.26
2017-12-16T05:30:02.884Z,99673.07
2017-12-16T05:31:05.380Z,99675.58
2017-12-16T05:32:07.848Z,99679.39
2017-12-16T05:33:10.346Z,99681.22
2017-12-16T05:34:12.815Z,99675.53
2017-12-16T05:35:15.271Z,99680.52
2017-12-16T05:36:17.746Z,99685.91
2017-12-16T05:37:20.221Z,99682.01
2017-12-16T05:38:22.713Z,99691.14
2017-12-16T05:39:25.161Z,99683.34
2017-12-16T05:40:27.651Z,99689.32
2017-12-16T05:41:30.144Z,99690.44
2017-12-16T05:42:32.606Z,99686.20
2017-12-16T05:43:35.059Z,99686.61
2017-12-16T05:44:37.555Z,99688.52
2017-12-16T05:45:40.029Z,99689.52
2017-12-16T05:46:42.520Z,99691.47
2017-12-16T05:47:44.992Z,99686.91
2017-12-16T05:48:47.462Z,99694.84
2017-12-16T05:49:49.942Z,99702.25
2017-12-16T05:50:52.402Z,99693.02
2017-12-16T05:51:54.874Z,99699.64
2017-12-16T05:52:57.415Z,99701.26
2017-12-16T05:53:59.885Z,99700.83
2017-12-16T05:55:02.350Z,99708.52
2017-12-16T05:56:04.816Z,99709.80
2017-12-16T05:57:07.307Z,99712.42
2017-12-16T05:58:09.777Z,99708.85
2017-12-16T05:59:12.234Z,99711.03
2017-12-16T06:00:14.698Z,99713.67
2017-12-16T06:01:17.241Z,99719.06
2017-12-16T06:02:19.723Z,99712.91
2017-12-16T06:03:22.229Z,99719.42
2017-12-16T06:04:24.700Z,99710.91
2017-12-16T06:05:27.172Z,99720.27
2017-12-16T06:06:29.649Z,99717.42
2017-12-16T06:07:32.145Z,99730.05
2017-12-16T06:08:34.612Z,99724.22
2017-12-16T06:09:37.187Z,99730.28
2017-12-16T06:10:39.641Z,99732.46
2017-12-16T06:11:42.120Z,99726.89
2017-12-16T06:12:44.594Z,99729.77
2017-12-16T06:13:47.050Z,99731.39
2017-12-16T06:14:49.520Z,99732.16
2017-12-16T06:15:51.989Z,99736.22
2017-12-16T06:16:54.446Z,99735.63
2017-12-16T06:17:56.936Z,99734.56
2017-12-16T06:18:59.391Z,99737.08
2017-12-16T06:20:01.851Z,99736.95
2017-12-16T06:21:04.319Z,99739.23
2017-12-16T06:22:06.792Z,99741.25
2017-12-16T06:23:09.266Z,99740.72
2017-12-16T06:24:11.734Z,99741.71
2017-12-16T06:25:14.209Z,99746.70
2017-12-16T06:26:16.676Z,99740.98
2017-12-16T06:27:19.154Z,99737.02
2017-12-16T06:28:21.653Z,99740.25
2017-12-16T06:29:24.111Z,99736.05
2017-12-16T06:30:26.570Z,99742.97
2017-12-16T06:31:29.023Z,99742.34
2017-12-16T06:32:31.493Z,99743.07
2017-12-16T06:33:33.966Z,99743.59
2017-12-16T06:34:36.427Z,99743.95
2017-12-16T06:35:38.917Z,99739.95
2017-12-16T06:36:41.373Z,99745.02
2017-12-16T06:37:43.850Z,99747.17
2017-12-16T06:38:46.404Z,99744.75
2017-12-16T06:39:48.970Z,99745.22
2017-12-16T06:40:51.447Z,99752.73
2017-12-16T06:41:54.648Z,99759.98
2017-12-16T06:42:57.111Z,99755.80
2017-12-16T06:43:59.600Z,99764.02
2017-12-16T06:45:02.097Z,99759.51
2017-12-16T06:46:04.554Z,99768.12
2017-12-16T06:47:07.020Z,99765.20
2017-12-16T06:48:09.489Z,99768.78
2017-12-16T06:49:11.973Z,99766.13
2017-12-16T06:50:14.430Z,99766.76
2017-12-16T06:51:16.894Z,99768.78
2017-12-16T06:52:19.364Z,99770.33
2017-12-16T06:53:21.818Z,99768.64
2017-12-16T06:54:24.316Z,99773.20
2017-12-16T06:55:26.776Z,99780.19
2017-12-16T06:56:29.249Z,99780.13
2017-12-16T06:57:31.734Z,99778.94
2017-12-16T06:58:34.198Z,99782.61
2017-12-16T06:59:36.692Z,99780.98
2017-12-16T07:00:39.150Z,99785.85
2017-12-16T07:01:41.710Z,99788.20
2017-12-16T07:02:44.171Z,99787.44
2017-12-16T07:03:46.635Z,99791.21
2017-12-16T07:04:49.108Z,99789.55
2017-12-16T07:05:51.568Z,99794.59
2017-12-16T07:06:54.038Z,99792.93
2017-12-16T07:07:56.513Z,99791.14
2017-12-16T07:08:58.987Z,99790.52
2017-12-16T07:10:01.481Z,99797.99
2017-12-16T07:11:03.960Z,99797.36
2017-12-16T07:12:06.423Z,99798.39
2017-12-16T07:13:08.952Z,99801.41
2017-12-16T07:14:11.414Z,99800.84
2017-12-16T07:15:14.192Z,99808.78
2017-12-16T07:16:16.639Z,99801.73
2017-12-16T07:17:19.094Z,99804.31
2017-12-16T07:18:21.560Z,99807.82
2017-12-16T07:19:24.012Z,99805.77
2017-12-16T07:20:26.501Z,99806.47
2017-12-16T07:21:28.973Z,99813.34
2017-12-16T07:22:31.431Z,99809.64
2017-12-16T07:23:33.886Z,99807.88
2017-12-16T07:24:36.367Z,99808.04
2017-12-16T07:25:38.860Z,99810.28
2017-12-16T07:26:41.336Z,99810.37
2017-12-16T07:27:43.815Z,99813.22
2017-12-16T07:28:46.287Z,99819.03
2017-12-16T07:29:48.782Z,99816.91
2017-12-16T07:30:51.258Z,99827.52
2017-12-16T07:31:53.731Z,99827.48
2017-12-16T07:32:56.205Z,99829.20
2017-12-16T07:33:58.666Z,99832.16
2017-12-16T07:35:01.135Z,99831.78
2017-12-16T07:36:03.635Z,99832.45
2017-12-16T07:37:06.095Z,99842.64
2017-12-16T07:38:08.560Z,99828.02
2017-12-16T07:39:11.032Z,99842.27
2017-12-16T07:40:14.570Z,99842.48
2017-12-16T07:41:17.056Z,99846.38
2017-12-16T07:42:19.518Z,99852.31
2017-12-16T07:43:21.976Z,99846.55
2017-12-16T07:44:24.440Z,99845.12
2017-12-16T07:45:26.894Z,99854.23
2017-12-16T07:46:29.370Z,99850.95
2017-12-16T07:47:31.830Z,99857.58
2017-12-16T07:48:34.300Z,99854.00
2017-12-16T07:49:37.340Z,99858.34
2017-12-16T07:50:39.825Z,99860.92
2017-12-16T07:51:42.299Z,99858.83
2017-12-16T07:52:44.790Z,99865.68
2017-12-16T07:53:47.244Z,99867.97
2017-12-16T07:54:49.713Z,99871.08
2017-12-16T07:55:52.184Z,99870.48
2017-12-16T07:56:54.681Z,99877.11
2017-12-16T07:57:57.147Z,99878.94
2017-12-16T07:58:59.652Z,99879.46
2017-12-16T08:00:02.109Z,99879.86
2017-12-16T08:01:04.566Z,99884.19
2017-12-16T08:02:07.046Z,99881.94
2017-12-16T08:03:09.498Z,99882.34
2017-12-16T08:04:11.968Z,99889.22
2017-12-16T08:05:14.441Z,99890.75
2017-12-16T08:06:20.241Z,99891.15
2017-12-16T08:07:22.726Z,99894.43
2017-12-16T08:08:25.416Z,99896.45
2017-12-16T08:09:28.419Z,99898.37
2017-12-16T08:10:31.498Z,99903.30
2017-12-16T08:11:33.973Z,99904.59
2017-12-16T08:12:36.450Z,99901.35
2017-12-16T08:13:38.916Z,99905.89
2017-12-16T08:14:41.366Z,99904.06
2017-12-16T08:15:43.832Z,99912.31
2017-12-16T08:16:46.286Z,99917.81
2017-12-16T08:17:48.770Z,99921.45
2017-12-16T08:18:51.226Z,99920.36
2017-12-16T08:19:53.817Z,99923.17
2017-12-16T08:20:56.274Z,99923.51
2017-12-16T08:21:58.836Z,99922.14
2017-12-16T08:23:01.323Z,99925.31
2017-12-16T08:24:03.792Z,99929.27
2017-12-16T08:25:06.261Z,99930.13
2017-12-16T08:26:08.725Z,99936.12
2017-12-16T08:27:11.207Z,99941.36
2017-12-16T08:28:13.717Z,99935.23
2017-12-16T08:29:16.238Z,99935.62
2017-12-16T08:30:18.704Z,99937.88
2017-12-16T08:31:21.642Z,99943.20
2017-12-16T08:32:24.504Z,99948.41
2017-12-16T08:33:27.169Z,99944.81
2017-12-16T08:34:30.029Z,99949.41
2017-12-16T08:35:32.525Z,99945.97
2017-12-16T08:36:34.981Z,99943.05
2017-12-16T08:37:37.448Z,99943.38
2017-12-16T08:38:39.926Z,99954.41
2017-12-16T08:39:42.383Z,99955.91
2017-12-16T08:40:44.888Z,99952.33
2017-12-16T08:41:47.350Z,99957.56
2017-12-16T08:42:49.802Z,99958.16
2017-12-16T08:43:52.385Z,99956.99
2017-12-16T08:44:54.822Z,99965.28
2017-12-16T08:45:57.310Z,99964.28
2017-12-16T08:47:00.071Z,99974.55
2017-12-16T08:48:02.563Z,99966.90
2017-12-16T08:49:05.073Z,99970.56
2017-12-16T08:50:07.531Z,99976.11
2017-12-16T08:51:10.005Z,99973.20
2017-12-16T08:52:12.485Z,99979.73
2017-12-16T08:53:14.949Z,99984.86
2017-12-16T08:54:17.449Z,99985.69
2017-12-16T08:55:19.935Z,99985.75
2017-12-16T08:56:22.405Z,99987.02
2017-12-16T08:57:24.877Z,99991.19
2017-12-16T08:58:27.440Z,99990.53
2017-12-16T08:59:29.933Z,99991.89
2017-12-16T09:00:32.432Z,99991.82
2017-12-16T09:01:34.904Z,99993.87
2017-12-16T09:02:37.372Z,99994.06
2017-12-16T09:03:39.836Z,99996.39
2017-12-16T09:04:42.315Z,99998.19
2017-12-16T09:05:44.808Z,99994.06
2017-12-16T09:06:47.276Z,99999.97
2017-12-16T09:07:49.735Z,100002.26
2017-12-16T09:08:52.238Z,100006.23
2017-12-16T09:09:54.722Z,100010.14
2017-12-16T09:10:57.198Z,100016.17
2017-12-16T09:11:59.663Z,100017.91
2017-12-16T09:13:02.141Z,100024.59
2017-12-16T09:14:04.599Z,100019.33
2017-12-16T09:15:07.146Z,100026.28
2017-12-16T09:16:09.620Z,100023.47
2017-12-16T09:17:12.079Z,100016.90
2017-12-16T09:18:14.567Z,100015.56
2017-12-16T09:19:17.030Z,100013.39
2017-12-16T09:20:19.529Z,100023.00
2017-12-16T09:21:22.007Z,100023.73
2017-12-16T09:22:24.476Z,100023.47
2017-12-16T09:23:26.943Z,100025.93
2017-12-16T09:24:29.437Z,100030.74
2017-12-16T09:25:32.028Z,100033.37
2017-12-16T09:26:34.492Z,100026.19
2017-12-16T09:27:36.972Z,100028.41
2017-12-16T09:28:39.479Z,100034.63
2017-12-16T09:29:41.944Z,100042.39
2017-12-16T09:30:44.431Z,100040.53
2017-12-16T09:31:46.896Z,100038.50
2017-12-16T09:32:49.354Z,100043.25
2017-12-16T09:33:51.810Z,100047.20
2017-12-16T09:34:54.267Z,100051.67
2017-12-16T09:35:56.746Z,100050.86
2017-12-16T09:36:59.220Z,100052.84
2017-12-16T09:38:01.696Z,100062.81
2017-12-16T09:39:04.154Z,100061.42
2017-12-16T09:40:06.629Z,100064.14
2017-12-16T09:41:09.127Z,100062.62
2017-12-16T09:42:11.586Z,100062.78
2017-12-16T09:43:14.043Z,100065.60
2017-12-16T09:44:16.502Z,100064.22
2017-12-16T09:45:18.972Z,100068.99
2017-12-16T09:47:29.722Z,100071.80
2017-12-16T09:48:32.388Z,100066.52
2017-12-16T09:49:34.876Z,100067.70
2017-12-16T09:50:37.353Z,100058.84
2017-12-16T09:51:40.860Z,100066.96
2017-12-16T09:52:46.326Z,100063.69
2017-12-16T09:53:48.885Z,100068.14
2017-12-16T09:54:51.359Z,100060.53
2017-12-16T09:55:53.837Z,100068.08
2017-12-16T09:56:57.392Z,100070.25
2017-12-16T09:58:01.395Z,100068.44
2017-12-16T09:59:03.859Z,100068.76
2017-12-16T10:00:06.327Z,100069.70
2017-12-16T10:01:08.798Z,100068.27
2017-12-16T10:02:11.262Z,100064.95
2017-12-16T10:03:13.818Z,100064.82
2017-12-16T10:04:16.286Z,100069.86
2017-12-16T10:05:18.880Z,100067.86
2017-12-16T10:06:21.339Z,100064.77
2017-12-16T10:07:23.806Z,100069.77
2017-12-16T10:08:26.268Z,100064.67
2017-12-16T10:09:28.765Z,100068.66
2017-12-16T10:10:31.234Z,100061.84
2017-12-16T10:11:33.709Z,100067.84
2017-12-16T10:12:36.193Z,100063.70
2017-12-16T10:13:38.705Z,100063.63
2017-12-16T10:14:41.233Z,100070.52
2017-12-16T10:15:43.825Z,100072.94
2017-12-16T10:16:46.290Z,100077.48
2017-12-16T10:17:48.761Z,100074.52
2017-12-16T10:18:51.236Z,100072.75
2017-12-16T10:19:53.698Z,100077.49
2017-12-16T10:20:56.177Z,100074.45
2017-12-16T10:21:59.961Z,100076.90
2017-12-16T10:23:02.506Z,100077.71
2017-12-16T10:24:04.980Z,100074.03
2017-12-16T10:25:07.464Z,100074.87
2017-12-16T10:26:09.945Z,100074.81
2017-12-16T10:27:12.408Z,100072.88
2017-12-16T10:28:18.147Z,100078.09
2017-12-16T10:29:20.647Z,100072.66
2017-12-16T10:30:23.129Z,100069.41
2017-12-16T10:31:25.613Z,100072.30
2017-12-16T10:32:28.081Z,100071.98
2017-12-16T10:33:30.826Z,100071.95
2017-12-16T10:34:34.185Z,100074.07
2017-12-16T10:35:36.663Z,100077.70
2017-12-16T10:36:39.141Z,100075.91
2017-12-16T10:37:42.015Z,100083.80
2017-12-16T10:38:44.687Z,100082.81
2017-12-16T10:39:47.164Z,100077.65
2017-12-16T10:40:49.640Z,100084.27
2017-12-16T10:41:52.117Z,100079.65
2017-12-16T10:42:54.608Z,100078.47
2017-12-16T10:43:57.088Z,100083.91
2017-12-16T10:44:59.635Z,100082.56
2017-12-16T10:46:02.094Z,100088.33
2017-12-16T10:47:04.576Z,100086.13
2017-12-16T10:48:07.042Z,100088.50
2017-12-16T10:49:09.520Z,100090.69
2017-12-16T10:50:11.989Z,100092.37
2017-12-16T10:51:14.465Z,100089.47
2017-12-16T10:52:16.929Z,100093.14
2017-12-16T10:53:19.404Z,100092.48
2017-12-16T10:54:21.871Z,100094.33
2017-12-16T10:55:24.476Z,100098.02
2017-12-16T10:56:26.960Z,100094.42
2017-12-16T10:57:29.427Z,100097.02
2017-12-16T10:58:31.895Z,100092.92
2017-12-16T10:59:34.465Z,100100.88
2017-12-16T11:00:37.244Z,100095.36
2017-12-16T11:01:40.742Z,100097.78
2017-12-16T11:02:44.129Z,100094.81
2017-12-16T11:03:47.408Z,100097.44
2017-12-16T11:04:49.981Z,100095.59
2017-12-16T11:05:52.461Z,100099.17
2017-12-16T11:06:54.997Z,100101.16
2017-12-16T11:07:57.463Z,100106.91
2017-12-16T11:08:59.942Z,100111.27
2017-12-16T11:10:02.418Z,100111.13
2017-12-16T11:11:04.904Z,100109.00
2017-12-16T11:12:07.595Z,100110.77
2017-12-16T11:13:10.059Z,100113.75
2017-12-16T11:14:12.534Z,100116.25
2017-12-16T11:15:15.650Z,100120.34
2017-12-16T11:16:18.445Z,100114.91
2017-12-16T11:17:20.903Z,100111.34
2017-12-16T11:18:23.688Z,100119.34
2017-12-16T11:19:26.343Z,100119.16
2017-12-16T11:20:29.695Z,100120.33
2017-12-16T11:21:32.154Z,100124.47
2017-12-16T11:22:34.614Z,100113.92
2017-12-16T11:23:37.091Z,100122.89
2017-12-16T11:24:39.583Z,100115.92
2017-12-16T11:25:42.054Z,100114.95
2017-12-16T11:26:44.511Z,100119.15
2017-12-16T11:27:46.987Z,100114.45
2017-12-16T11:28:49.459Z,100116.81
2017-12-16T11:29:52.099Z,100121.14
2017-12-16T11:30:54.579Z,100116.88
2017-12-16T11:31:57.038Z,100123.28
2017-12-16T11:32:59.508Z,100116.78
2017-12-16T11:34:02.279Z,100117.97
2017-12-16T11:35:04.763Z,100118.19
2017-12-16T11:36:07.236Z,100119.72
2017-12-16T11:37:09.738Z,100121.48
2017-12-16T11:38:12.199Z,100116.53
2017-12-16T11:39:14.658Z,100120.31
2017-12-16T11:40:17.138Z,100122.85
2017-12-16T11:41:19.621Z,100120.72
2017-12-16T11:42:22.112Z,100114.45
2017-12-16T11:43:24.584Z,100109.25
2017-12-16T11:44:27.061Z,100109.65
2017-12-16T11:45:29.549Z,100093.50
2017-12-16T11:46:32.032Z,100113.88
2017-12-16T11:47:34.499Z,100112.75
2017-12-16T11:48:36.973Z,100112.48
2017-12-16T11:49:39.444Z,100117.20
2017-12-16T11:50:41.907Z,100116.06
2017-12-16T11:51:44.402Z,100118.30
2017-12-16T11:52:47.133Z,100125.88
2017-12-16T11:53:49.688Z,100129.85
2017-12-16T11:54:52.160Z,100127.70
2017-12-16T11:55:54.640Z,100129.44
2017-12-16T11:56:57.113Z,100122.31
2017-12-16T11:57:59.622Z,100121.97
2017-12-16T11:59:02.101Z,100120.34
2017-12-16T12:00:04.579Z,100133.08
2017-12-16T12:01:07.048Z,100127.23
2017-12-16T12:02:09.515Z,100125.37
2017-12-16T12:03:11.980Z,100121.89
2017-12-16T12:04:14.449Z,100127.49
2017-12-16T12:05:16.928Z,100119.44
2017-12-16T12:06:19.395Z,100119.27
2017-12-16T12:07:21.873Z,100109.66
2017-12-16T12:08:24.350Z,100118.44
2017-12-16T12:09:26.827Z,100116.73
2017-12-16T12:10:29.286Z,100111.18